Time;durP1;ratioP1;P1;durP2;ratioP2;P2;SDS_P1;SDS_P2;PMS_P1;PMS_P2;Temp;Humidity;BMP_temperature;BMP_pressure;BME280_temperature;BME280_humidity;BME280_pressure;Samples;Min_cycle;Max_cycle;Signal;HPM_P1;HPM_P2
2021/10/23 00:02:14;;;;;;;5.15;2.45;;;6.50;99.90;;;;;;5040748;28;20491;-74
2021/10/23 00:04:40;;;;;;;3.58;2.00;;;6.50;99.90;;;;;;5037658;28;20025;-75
2021/10/23 00:07:06;;;;;;;4.72;2.03;;;6.50;99.90;;;;;;5040702;28;20131;-75
2021/10/23 00:09:31;;;;;;;4.75;2.10;;;6.40;99.90;;;;;;5040493;28;20021;-74
2021/10/23 00:11:57;;;;;;;7.32;1.85;;;6.50;99.90;;;;;;5039092;28;20036;-75
2021/10/23 00:14:22;;;;;;;7.30;1.90;;;6.50;99.90;;;;;;5045597;28;20033;-75
2021/10/23 00:16:48;;;;;;;3.15;1.83;;;6.50;99.90;;;;;;5043125;28;20127;-75
2021/10/23 00:19:14;;;;;;;4.72;1.75;;;6.40;99.90;;;;;;5048922;28;20032;-75
2021/10/23 00:21:39;;;;;;;4.30;1.60;;;6.40;99.90;;;;;;5038613;28;20439;-75
2021/10/23 00:24:05;;;;;;;2.63;1.73;;;6.30;99.90;;;;;;5044355;28;20021;-75
2021/10/23 00:26:30;;;;;;;5.47;1.80;;;6.40;99.90;;;;;;5042055;28;20032;-75
2021/10/23 00:28:56;;;;;;;5.28;2.15;;;6.30;99.90;;;;;;5043641;28;20029;-75
2021/10/23 00:31:22;;;;;;;5.03;1.80;;;6.40;99.90;;;;;;5039485;28;20487;-75
2021/10/23 00:33:47;;;;;;;4.38;2.40;;;6.50;99.90;;;;;;5042570;28;20021;-75
2021/10/23 00:36:13;;;;;;;5.25;2.10;;;6.50;99.90;;;;;;5038243;28;20025;-74
2021/10/23 00:38:39;;;;;;;3.22;2.10;;;6.70;99.90;;;;;;5038763;28;20101;-74
2021/10/23 00:41:04;;;;;;;3.65;2.20;;;6.40;99.90;;;;;;5039981;28;20148;-74
2021/10/23 00:43:30;;;;;;;7.07;2.30;;;6.40;99.90;;;;;;5043149;28;20482;-74
2021/10/23 00:45:56;;;;;;;5.20;2.70;;;6.30;99.90;;;;;;5042006;28;20486;-74
2021/10/23 00:48:21;;;;;;;3.28;2.20;;;6.30;99.90;;;;;;5045898;28;20033;-74
2021/10/23 00:50:47;;;;;;;3.80;2.10;;;6.30;99.90;;;;;;5039599;28;20028;-74
2021/10/23 00:53:14;;;;;;;5.25;2.10;;;6.30;99.90;;;;;;5045683;28;20033;-74
2021/10/23 00:55:41;;;;;;;6.30;2.20;;;6.30;99.90;;;;;;5043766;28;20033;-74
2021/10/23 00:58:07;;;;;;;3.42;2.10;;;6.30;99.90;;;;;;5043453;28;20548;-74
2021/10/23 01:00:33;;;;;;;5.43;2.30;;;6.40;99.90;;;;;;5042726;28;20029;-73
2021/10/23 01:02:58;;;;;;;3.85;1.83;;;6.50;99.90;;;;;;5043370;28;20049;-74
2021/10/23 01:05:24;;;;;;;4.53;2.53;;;6.40;99.90;;;;;;5040152;28;20021;-74
2021/10/23 01:07:51;;;;;;;5.30;2.72;;;6.40;99.90;;;;;;5043222;28;20025;-75
2021/10/23 01:10:16;;;;;;;6.25;2.50;;;6.30;99.90;;;;;;5042574;28;20025;-75
2021/10/23 01:12:43;;;;;;;5.80;2.58;;;6.40;99.90;;;;;;5052151;28;20514;-76
2021/10/23 01:15:23;;;;;;;5.18;2.80;;;6.30;99.90;;;;;;5051967;28;20052;-76
2021/10/23 01:17:50;;;;;;;4.28;2.70;;;6.10;99.90;;;;;;5034947;28;20022;-76
2021/10/23 01:20:16;;;;;;;4.10;2.75;;;6.10;99.90;;;;;;5040628;28;20519;-75
2021/10/23 01:22:42;;;;;;;6.85;2.97;;;6.10;99.90;;;;;;5035595;28;20121;-75
2021/10/23 01:25:09;;;;;;;5.53;2.85;;;5.90;99.90;;;;;;5032048;28;20055;-75
2021/10/23 01:27:35;;;;;;;3.95;2.60;;;6.00;99.90;;;;;;5037550;28;20083;-76
2021/10/23 01:30:00;;;;;;;4.57;2.85;;;5.90;99.90;;;;;;5039577;28;20029;-75
2021/10/23 01:32:26;;;;;;;4.63;2.35;;;5.80;99.90;;;;;;5036774;28;20120;-75
2021/10/23 01:34:51;;;;;;;5.07;2.40;;;5.70;99.90;;;;;;5037146;28;20029;-76
2021/10/23 01:37:17;;;;;;;2.85;2.33;;;5.70;99.90;;;;;;5036806;28;20114;-73
2021/10/23 01:39:42;;;;;;;7.25;2.72;;;5.60;99.90;;;;;;5033200;28;20025;-74
2021/10/23 01:42:08;;;;;;;6.40;2.40;;;5.50;99.90;;;;;;5035889;28;20433;-74
2021/10/23 01:44:35;;;;;;;6.65;3.10;;;5.60;99.90;;;;;;5039490;28;20053;-73
2021/10/23 01:47:02;;;;;;;5.40;2.50;;;5.60;99.90;;;;;;5040475;28;20045;-74
2021/10/23 01:49:28;;;;;;;5.68;2.80;;;5.50;99.90;;;;;;5035850;28;20494;-74
2021/10/23 01:51:54;;;;;;;4.78;3.03;;;5.50;99.90;;;;;;5037848;28;20055;-73
2021/10/23 01:54:20;;;;;;;3.53;2.65;;;5.50;99.90;;;;;;5044646;28;20036;-75
2021/10/23 01:56:45;;;;;;;6.20;2.45;;;5.50;99.90;;;;;;5040814;28;20033;-75
2021/10/23 01:59:11;;;;;;;6.00;2.60;;;5.40;99.90;;;;;;5034986;28;20037;-75
2021/10/23 02:01:37;;;;;;;5.57;2.47;;;5.40;99.90;;;;;;5019453;28;20026;-75
2021/10/23 02:04:02;;;;;;;5.30;2.88;;;5.40;99.90;;;;;;5022711;28;20053;-75
2021/10/23 02:06:28;;;;;;;7.72;2.70;;;5.40;99.90;;;;;;5021386;28;20026;-75
2021/10/23 02:08:54;;;;;;;6.55;3.00;;;5.40;99.90;;;;;;5027345;28;20021;-76
2021/10/23 02:11:20;;;;;;;8.55;3.70;;;5.40;99.90;;;;;;5015538;28;20046;-74
2021/10/23 02:13:46;;;;;;;8.05;3.58;;;5.50;99.90;;;;;;5030536;28;20029;-76
2021/10/23 02:16:12;;;;;;;6.50;3.83;;;5.30;99.90;;;;;;5034668;28;20037;-76
2021/10/23 02:18:38;;;;;;;4.70;3.20;;;5.10;99.90;;;;;;5033515;28;20022;-75
2021/10/23 02:21:07;;;;;;;7.00;5.00;;;5.20;99.90;;;;;;5021049;28;20034;-75
2021/10/23 02:23:33;;;;;;;11.02;7.00;;;5.00;99.90;;;;;;5026477;28;20487;-75
2021/10/23 02:25:58;;;;;;;9.27;5.78;;;4.80;99.90;;;;;;5027928;28;20537;-75
2021/10/23 02:28:24;;;;;;;10.48;5.35;;;4.70;99.90;;;;;;5022541;28;20033;-75
2021/10/23 02:30:49;;;;;;;8.57;4.85;;;4.50;99.90;;;;;;5021212;28;20048;-75
2021/10/23 02:33:15;;;;;;;9.68;5.03;;;4.50;99.90;;;;;;5035289;28;20450;-77
2021/10/23 02:35:40;;;;;;;10.55;5.28;;;4.60;99.90;;;;;;5021639;28;20034;-77
2021/10/23 02:38:06;;;;;;;14.35;6.43;;;4.80;99.90;;;;;;5033808;28;20028;-77
2021/10/23 02:40:32;;;;;;;8.85;4.72;;;4.70;99.90;;;;;;5039608;28;20492;-76
2021/10/23 02:42:57;;;;;;;6.35;4.97;;;4.80;99.90;;;;;;5020843;28;20105;-76
2021/10/23 02:45:23;;;;;;;9.25;5.03;;;4.80;99.90;;;;;;5032596;28;20029;-76
2021/10/23 02:47:49;;;;;;;10.20;5.63;;;5.00;99.90;;;;;;5020161;28;20028;-74
2021/10/23 02:50:14;;;;;;;12.77;7.20;;;5.10;99.90;;;;;;5020856;28;20028;-74
2021/10/23 02:52:40;;;;;;;7.32;5.05;;;5.40;99.90;;;;;;5033794;28;20400;-74
2021/10/23 02:55:06;;;;;;;13.25;6.10;;;5.40;99.90;;;;;;5020572;28;20037;-76
2021/10/23 02:57:31;;;;;;;15.30;8.35;;;5.40;99.90;;;;;;5032632;28;20468;-76
2021/10/23 02:59:57;;;;;;;10.77;5.45;;;5.40;99.90;;;;;;5020487;28;20028;-75
2021/10/23 03:02:22;;;;;;;9.32;4.57;;;5.50;99.90;;;;;;5026289;28;20034;-76
2021/10/23 03:04:48;;;;;;;11.93;5.90;;;5.50;99.90;;;;;;5027328;28;20017;-76
2021/10/23 03:07:14;;;;;;;11.65;5.18;;;5.40;99.90;;;;;;5020736;28;20396;-75
2021/10/23 03:09:39;;;;;;;11.02;7.53;;;5.50;99.90;;;;;;5020184;28;20033;-76
2021/10/23 03:12:05;;;;;;;6.40;5.53;;;5.50;99.90;;;;;;5013772;28;20036;-75
2021/10/23 03:14:31;;;;;;;9.35;4.68;;;5.50;99.90;;;;;;5027009;28;20033;-76
2021/10/23 03:16:56;;;;;;;10.52;5.22;;;5.60;99.90;;;;;;5020794;28;20087;-76
2021/10/23 03:19:22;;;;;;;11.85;6.07;;;5.50;99.90;;;;;;5019939;28;20432;-75
2021/10/23 03:21:47;;;;;;;11.90;5.20;;;5.60;99.90;;;;;;5026292;28;20076;-77
2021/10/23 03:24:13;;;;;;;13.25;7.05;;;5.60;99.90;;;;;;5027250;28;20025;-76
2021/10/23 03:26:38;;;;;;;12.38;7.00;;;5.70;99.90;;;;;;5033287;28;20581;-77
2021/10/23 03:29:04;;;;;;;13.02;8.98;;;5.70;99.90;;;;;;5033343;28;20033;-75
2021/10/23 03:31:30;;;;;;;15.32;8.98;;;5.70;99.90;;;;;;5026310;28;20026;-74
2021/10/23 03:33:56;;;;;;;13.60;8.27;;;5.70;99.90;;;;;;5026805;28;20491;-74
2021/10/23 03:36:21;;;;;;;12.50;8.10;;;5.60;99.90;;;;;;5033226;28;20040;-76
2021/10/23 03:38:47;;;;;;;14.63;8.63;;;5.60;99.90;;;;;;5029309;28;20021;-75
2021/10/23 03:41:12;;;;;;;14.07;9.07;;;5.60;99.90;;;;;;5032794;28;20090;-75
2021/10/23 03:43:38;;;;;;;18.20;10.80;;;5.60;99.90;;;;;;5020401;28;20384;-76
2021/10/23 03:46:03;;;;;;;16.35;9.65;;;5.60;99.90;;;;;;5026560;28;20420;-76
2021/10/23 03:48:29;;;;;;;17.10;10.68;;;5.70;99.90;;;;;;5025447;28;20025;-76
2021/10/23 03:50:54;;;;;;;14.73;9.63;;;5.70;99.90;;;;;;5021913;28;20429;-76
2021/10/23 03:53:20;;;;;;;16.67;10.77;;;5.60;99.90;;;;;;5032901;28;20036;-75
2021/10/23 03:55:46;;;;;;;19.60;10.75;;;5.70;99.90;;;;;;5028116;28;20040;-77
2021/10/23 03:58:11;;;;;;;18.80;11.98;;;5.70;99.90;;;;;;5026128;28;20032;-76
2021/10/23 04:00:38;;;;;;;16.80;11.93;;;5.60;99.90;;;;;;5019255;28;20030;-77
2021/10/23 04:03:03;;;;;;;15.45;11.18;;;5.70;99.90;;;;;;5020819;28;20207;-76
2021/10/23 04:05:29;;;;;;;19.45;12.27;;;5.60;99.90;;;;;;5016597;28;20383;-76
2021/10/23 04:07:55;;;;;;;15.40;9.93;;;5.60;99.90;;;;;;5020981;28;20052;-77
2021/10/23 04:10:20;;;;;;;15.88;10.15;;;5.60;99.90;;;;;;5026028;28;20026;-76
2021/10/23 04:12:46;;;;;;;16.92;10.90;;;5.70;99.90;;;;;;5023554;28;20032;-76
2021/10/23 04:15:11;;;;;;;16.38;11.30;;;5.70;99.90;;;;;;5018116;28;20036;-77
2021/10/23 04:17:37;;;;;;;17.58;11.30;;;5.70;99.90;;;;;;5021168;28;20026;-74
2021/10/23 04:20:04;;;;;;;14.95;10.57;;;5.70;99.90;;;;;;5025630;28;20021;-75
2021/10/23 04:22:30;;;;;;;14.52;10.85;;;5.70;99.90;;;;;;5024080;28;20083;-75
2021/10/23 04:24:55;;;;;;;19.33;12.52;;;5.70;99.90;;;;;;5019285;28;20104;-75
2021/10/23 04:27:21;;;;;;;17.90;12.30;;;5.70;99.90;;;;;;5020751;28;20445;-76
2021/10/23 04:29:47;;;;;;;15.68;10.27;;;5.60;99.90;;;;;;5025712;28;20033;-76
2021/10/23 04:32:13;;;;;;;14.05;10.30;;;5.50;99.90;;;;;;5022784;28;20025;-76
2021/10/23 04:34:38;;;;;;;14.90;11.52;;;5.50;99.90;;;;;;5012636;28;20021;-76
2021/10/23 04:37:04;;;;;;;17.50;12.82;;;5.50;99.90;;;;;;5022457;28;20029;-74
2021/10/23 04:39:30;;;;;;;17.08;13.60;;;5.40;99.90;;;;;;5025105;28;20480;-76
2021/10/23 04:41:56;;;;;;;17.60;12.75;;;5.30;99.90;;;;;;5031823;28;20029;-76
2021/10/23 04:44:21;;;;;;;17.70;12.95;;;5.30;99.90;;;;;;5026563;28;20365;-76
2021/10/23 04:46:47;;;;;;;16.13;11.60;;;5.20;99.90;;;;;;5024386;28;20056;-76
2021/10/23 04:49:14;;;;;;;13.93;12.00;;;5.20;99.90;;;;;;5026168;28;20026;-76
2021/10/23 04:51:39;;;;;;;14.68;11.43;;;5.10;99.90;;;;;;5023466;28;20026;-76
2021/10/23 04:54:05;;;;;;;17.10;13.30;;;5.20;99.90;;;;;;5018537;28;20091;-75
2021/10/23 04:56:31;;;;;;;28.92;16.33;;;5.10;99.90;;;;;;5019821;28;20040;-75
2021/10/23 04:58:56;;;;;;;18.85;15.35;;;4.90;99.90;;;;;;5025313;28;20021;-75
2021/10/23 05:01:22;;;;;;;25.38;20.52;;;4.80;99.90;;;;;;5022256;28;20025;-75
2021/10/23 05:03:48;;;;;;;22.90;17.48;;;4.80;99.90;;;;;;5018501;28;20602;-76
2021/10/23 05:06:14;;;;;;;18.73;13.55;;;4.70;99.90;;;;;;5030592;28;20495;-75
2021/10/23 05:08:41;;;;;;;16.42;11.93;;;4.80;99.90;;;;;;5018413;28;20100;-75
2021/10/23 05:11:07;;;;;;;17.30;12.60;;;4.70;99.90;;;;;;5020038;28;20018;-75
2021/10/23 05:13:32;;;;;;;15.55;12.63;;;4.60;99.90;;;;;;5024972;28;20114;-75
2021/10/23 05:15:58;;;;;;;13.35;11.93;;;4.60;99.90;;;;;;5022140;28;20053;-75
2021/10/23 05:18:24;;;;;;;16.38;11.52;;;4.50;99.90;;;;;;5031402;28;20404;-75
2021/10/23 05:20:49;;;;;;;16.50;12.38;;;4.40;99.90;;;;;;5018605;28;20787;-73
2021/10/23 05:23:15;;;;;;;18.40;12.35;;;4.40;99.90;;;;;;5016700;28;20101;-74
2021/10/23 05:25:40;;;;;;;16.58;11.13;;;4.40;99.90;;;;;;5024201;28;20026;-74
2021/10/23 05:28:06;;;;;;;16.60;12.35;;;4.40;99.90;;;;;;5029117;28;20121;-73
2021/10/23 05:30:32;;;;;;;19.23;13.70;;;4.40;99.90;;;;;;5027166;28;20372;-74
2021/10/23 05:32:57;;;;;;;15.15;11.40;;;4.40;99.90;;;;;;5017559;28;20087;-74
2021/10/23 05:35:23;;;;;;;16.92;12.90;;;4.40;99.90;;;;;;5025665;28;20028;-74
2021/10/23 05:37:49;;;;;;;18.17;12.55;;;4.30;99.90;;;;;;5020978;28;20025;-74
2021/10/23 05:40:15;;;;;;;22.35;13.43;;;4.70;99.90;;;;;;5034074;28;20036;-74
2021/10/23 05:42:40;;;;;;;22.92;13.95;;;4.30;99.90;;;;;;5035154;28;20029;-74
2021/10/23 05:45:07;;;;;;;15.75;12.30;;;4.20;99.90;;;;;;5035229;28;20487;-73
2021/10/23 05:47:32;;;;;;;17.08;11.77;;;4.00;99.90;;;;;;5021783;28;20029;-74
2021/10/23 05:49:58;;;;;;;17.02;12.02;;;4.30;99.90;;;;;;5023813;28;20030;-73
2021/10/23 05:52:24;;;;;;;16.83;11.48;;;4.10;99.90;;;;;;5027170;28;20029;-74
2021/10/23 05:54:49;;;;;;;13.25;11.90;;;4.10;99.90;;;;;;5026344;28;20025;-74
2021/10/23 05:57:15;;;;;;;17.08;12.25;;;4.10;99.90;;;;;;5030950;28;20459;-74
2021/10/23 05:59:42;;;;;;;20.52;15.27;;;4.10;99.90;;;;;;5025891;28;20613;-74
2021/10/23 06:02:21;;;;;;;15.98;12.35;;;4.10;99.90;;;;;;5021349;28;20112;-74
2021/10/23 06:04:48;;;;;;;16.73;13.43;;;4.00;99.90;;;;;;5022101;28;20026;-74
2021/10/23 06:07:13;;;;;;;26.33;18.33;;;4.20;99.90;;;;;;5028400;28;20029;-74
2021/10/23 06:09:39;;;;;;;22.35;16.15;;;3.80;99.90;;;;;;5028201;28;20029;-74
2021/10/23 06:12:05;;;;;;;17.52;14.35;;;3.80;99.90;;;;;;5027161;28;20036;-74
2021/10/23 06:14:30;;;;;;;18.25;13.73;;;3.70;99.90;;;;;;5027678;28;20075;-74
2021/10/23 06:16:56;;;;;;;19.77;14.32;;;3.80;99.90;;;;;;5025495;28;20065;-74
2021/10/23 06:19:21;;;;;;;16.85;14.07;;;3.90;99.90;;;;;;5014830;28;20447;-74
2021/10/23 06:21:47;;;;;;;36.35;21.10;;;3.80;99.90;;;;;;5033904;28;20029;-74
2021/10/23 06:24:13;;;;;;;91.57;31.52;;;3.90;99.90;;;;;;5022346;28;20018;-74
2021/10/23 06:26:38;;;;;;;562.33;57.95;;;3.70;99.90;;;;;;5026649;28;20057;-74
2021/10/23 06:29:04;;;;;;;356.98;37.63;;;3.20;99.90;;;;;;5025378;28;20052;-74
2021/10/23 06:31:29;;;;;;;368.95;37.30;;;3.00;99.90;;;;;;5021085;28;20479;-74
2021/10/23 06:33:55;;;;;;;66.90;24.30;;;3.10;99.90;;;;;;5023983;28;20038;-74
2021/10/23 06:36:20;;;;;;;48.92;18.60;;;3.10;99.90;;;;;;5027385;28;20026;-74
2021/10/23 06:38:46;;;;;;;89.38;27.63;;;3.30;99.90;;;;;;5025961;28;20029;-74
2021/10/23 06:41:11;;;;;;;45.40;21.48;;;3.40;99.90;;;;;;5033944;28;20480;-73
2021/10/23 06:43:37;;;;;;;81.88;28.33;;;3.60;99.90;;;;;;5032779;28;20026;-73
2021/10/23 06:46:02;;;;;;;35.90;24.02;;;3.70;99.90;;;;;;5025628;28;20139;-74
2021/10/23 06:48:28;;;;;;;36.55;24.25;;;3.80;99.90;;;;;;5033961;28;20026;-74
2021/10/23 06:50:53;;;;;;;43.63;28.88;;;3.80;99.90;;;;;;5020505;28;20030;-74
2021/10/23 06:53:19;;;;;;;36.08;24.80;;;4.00;99.90;;;;;;5021579;28;20033;-74
2021/10/23 06:55:44;;;;;;;31.85;22.42;;;4.10;99.90;;;;;;5027277;28;20034;-74
2021/10/23 06:58:10;;;;;;;19.23;17.20;;;4.10;99.90;;;;;;5020403;28;20042;-73
2021/10/23 07:00:36;;;;;;;25.35;20.35;;;4.30;99.90;;;;;;5033308;28;20036;-74
2021/10/23 07:03:01;;;;;;;21.80;17.25;;;4.40;99.90;;;;;;5040545;28;20111;-74
2021/10/23 07:05:28;;;;;;;21.55;18.30;;;4.50;99.90;;;;;;5032272;28;20029;-74
2021/10/23 07:07:57;;;;;;;29.70;20.92;;;4.60;99.90;;;;;;5042938;28;20032;-74
2021/10/23 07:10:22;;;;;;;23.10;18.58;;;4.60;99.90;;;;;;5039052;28;20021;-75
2021/10/23 07:16:10;;;;;;;24.88;19.60;;;4.70;99.90;;;;;;5029182;28;20494;-75
2021/10/23 07:18:36;;;;;;;22.65;18.85;;;5.00;99.90;;;;;;5033203;28;20388;-74
2021/10/23 07:21:01;;;;;;;21.67;17.63;;;5.00;99.90;;;;;;5031704;28;20024;-74
2021/10/23 07:23:27;;;;;;;23.10;17.42;;;5.00;99.90;;;;;;5033229;28;20442;-74
2021/10/23 07:25:52;;;;;;;19.98;16.02;;;5.20;99.90;;;;;;5033310;28;20036;-74
2021/10/23 07:28:18;;;;;;;53.30;38.63;;;5.30;99.90;;;;;;5033075;28;20036;-74
2021/10/23 07:30:43;;;;;;;46.75;29.77;;;5.40;99.90;;;;;;5032336;28;20577;-74
2021/10/23 07:33:09;;;;;;;46.70;32.05;;;5.40;99.90;;;;;;5023734;28;20583;-74
2021/10/23 07:35:34;;;;;;;64.88;42.90;;;5.40;99.90;;;;;;5013940;28;20476;-74
2021/10/23 07:38:03;;;;;;;27.85;19.92;;;5.40;99.90;;;;;;5028748;28;20499;-74
2021/10/23 07:40:29;;;;;;;20.48;13.57;;;5.40;99.90;;;;;;5045563;28;20037;-74
2021/10/23 07:42:55;;;;;;;18.10;13.30;;;5.60;99.90;;;;;;5024811;28;20391;-72
2021/10/23 07:45:21;;;;;;;16.60;11.75;;;5.70;99.90;;;;;;5022149;28;20030;-72
2021/10/23 07:47:46;;;;;;;21.27;14.95;;;5.70;99.90;;;;;;5021144;28;20022;-73
2021/10/23 07:50:12;;;;;;;20.60;13.75;;;5.80;99.90;;;;;;5020114;28;20026;-72
2021/10/23 07:52:39;;;;;;;20.00;12.75;;;5.80;99.90;;;;;;5024929;28;20034;-72
2021/10/23 07:55:07;;;;;;;18.25;11.48;;;5.80;99.90;;;;;;5009624;28;20038;-72
2021/10/23 07:57:34;;;;;;;14.95;9.77;;;5.90;99.90;;;;;;5031827;28;20120;-72
2021/10/23 07:59:59;;;;;;;17.33;9.65;;;5.90;99.90;;;;;;5017172;28;20034;-73
2021/10/23 08:02:26;;;;;;;14.00;9.60;;;6.00;99.90;;;;;;5032045;28;20041;-73
2021/10/23 08:04:51;;;;;;;20.63;9.73;;;6.10;99.90;;;;;;5032021;28;20492;-75
2021/10/23 08:07:17;;;;;;;14.25;9.15;;;6.10;99.90;;;;;;5013056;28;20080;-73
2021/10/23 08:09:43;;;;;;;13.48;8.55;;;6.10;99.90;;;;;;5011224;28;20027;-73
2021/10/23 08:12:08;;;;;;;13.77;9.63;;;6.10;99.90;;;;;;5016964;28;20539;-73
2021/10/23 08:14:36;;;;;;;15.27;9.60;;;6.20;99.90;;;;;;5018573;28;20030;-73
2021/10/23 08:17:03;;;;;;;14.07;9.57;;;6.30;99.90;;;;;;5032004;28;20025;-72
2021/10/23 08:19:28;;;;;;;16.33;9.82;;;6.30;99.90;;;;;;5019204;28;20064;-73
2021/10/23 08:21:54;;;;;;;14.63;8.70;;;6.40;99.90;;;;;;5018373;28;20030;-73
2021/10/23 08:24:20;;;;;;;11.95;8.68;;;6.40;99.90;;;;;;5032290;28;20499;-73
2021/10/23 08:26:45;;;;;;;18.65;9.07;;;6.50;99.90;;;;;;5017697;28;20025;-73
2021/10/23 08:29:15;;;;;;;15.40;8.93;;;6.50;99.90;;;;;;5019185;28;20028;-73
2021/10/23 08:31:44;;;;;;;13.07;7.78;;;6.50;99.90;;;;;;5047452;28;20517;-73
2021/10/23 08:34:10;;;;;;;12.05;7.75;;;6.60;99.90;;;;;;5032038;28;20037;-72
2021/10/23 08:36:36;;;;;;;14.27;7.93;;;6.60;99.90;;;;;;5032034;28;20044;-73
2021/10/23 08:39:03;;;;;;;15.55;8.40;;;6.70;99.90;;;;;;5031723;28;20472;-73
2021/10/23 08:41:29;;;;;;;14.85;8.38;;;6.80;99.90;;;;;;5031792;28;20032;-73
2021/10/23 08:43:54;;;;;;;17.27;8.65;;;6.80;99.90;;;;;;5018414;28;20101;-73
2021/10/23 08:46:22;;;;;;;14.20;8.88;;;6.80;99.90;;;;;;5030275;28;20030;-76
2021/10/23 08:48:52;;;;;;;13.15;6.72;;;7.00;99.90;;;;;;5031801;28;20552;-73
2021/10/23 08:51:22;;;;;;;13.55;7.15;;;7.00;99.90;;;;;;5031645;28;20057;-75
2021/10/23 08:53:49;;;;;;;15.30;7.93;;;7.00;99.90;;;;;;5029773;28;20025;-72
2021/10/23 08:56:15;;;;;;;16.02;7.72;;;7.10;99.90;;;;;;5019590;28;20041;-72
2021/10/23 08:58:44;;;;;;;10.88;6.95;;;7.20;99.90;;;;;;5017883;28;20392;-72
2021/10/23 09:01:15;;;;;;;13.98;7.47;;;7.30;99.90;;;;;;5032214;28;20029;-72
2021/10/23 09:03:42;;;;;;;13.93;6.78;;;7.30;99.90;;;;;;5028835;28;20026;-73
2021/10/23 09:06:33;;;;;;;12.07;6.65;;;7.40;99.90;;;;;;5011848;28;20048;-72
2021/10/23 09:09:05;;;;;;;13.10;5.93;;;7.40;99.90;;;;;;5031289;28;20033;-72
2021/10/23 09:11:40;;;;;;;11.07;6.50;;;7.50;99.90;;;;;;5016541;28;20391;-72
2021/10/23 09:14:24;;;;;;;15.25;6.60;;;7.50;99.90;;;;;;5019056;28;20026;-72
2021/10/23 09:17:08;;;;;;;11.20;5.13;;;7.50;99.90;;;;;;5027767;28;20427;-75
2021/10/23 09:19:44;;;;;;;8.77;5.35;;;7.60;99.90;;;;;;5024812;28;20029;-72
2021/10/23 09:22:35;;;;;;;7.28;4.97;;;7.70;99.90;;;;;;5020157;28;20029;-72
2021/10/23 09:25:27;;;;;;;10.88;5.10;;;7.70;99.90;;;;;;5021913;28;20025;-72
2021/10/23 09:28:03;;;;;;;9.27;4.00;;;7.80;99.90;;;;;;5017613;28;20018;-72
2021/10/23 09:30:33;;;;;;;11.95;4.32;;;7.80;99.90;;;;;;5021590;28;20052;-72
2021/10/23 09:33:04;;;;;;;10.55;3.92;;;7.70;99.90;;;;;;5014545;28;20064;-72
2021/10/23 09:35:30;;;;;;;9.30;3.92;;;7.90;99.90;;;;;;5011845;28;20771;-72
2021/10/23 09:37:57;;;;;;;7.45;4.03;;;7.90;99.90;;;;;;5015707;28;20506;-72
2021/10/23 09:40:25;;;;;;;11.38;4.70;;;7.80;99.90;;;;;;5031287;28;20026;-72
2021/10/23 09:43:10;;;;;;;11.18;4.30;;;7.80;99.90;;;;;;5031188;28;20384;-72
2021/10/23 09:45:37;;;;;;;9.30;3.60;;;7.90;99.90;;;;;;5029065;28;20017;-72
2021/10/23 09:48:08;;;;;;;9.73;3.92;;;7.80;99.90;;;;;;5020681;28;20025;-72
2021/10/23 09:50:34;;;;;;;8.35;3.67;;;7.90;99.90;;;;;;5031137;28;20052;-72
2021/10/23 09:53:10;;;;;;;10.82;3.47;;;7.90;99.90;;;;;;5021574;28;20157;-72
2021/10/23 09:55:39;;;;;;;;;;;7.90;99.90;;;;;;5028379;28;20041;-72
2021/10/23 09:58:24;;;;;;;7.60;3.58;;;8.10;99.90;;;;;;5019788;28;20060;-72
2021/10/23 10:00:52;;;;;;;10.65;4.38;;;8.20;99.90;;;;;;5018943;28;20057;-72
2021/10/23 10:03:18;;;;;;;9.57;5.75;;;8.30;99.90;;;;;;5030096;28;20025;-72
2021/10/23 10:05:44;;;;;;;14.35;6.95;;;8.30;99.90;;;;;;5019269;28;20018;-72
2021/10/23 10:08:12;;;;;;;13.57;3.53;;;8.40;99.90;;;;;;5017862;28;20096;-72
2021/10/23 10:10:46;;;;;;;16.23;8.23;;;8.40;99.90;;;;;;5030308;28;20025;-72
2021/10/23 10:13:14;;;;;;;8.05;3.45;;;8.50;99.90;;;;;;5023174;28;20112;-72
2021/10/23 10:15:47;;;;;;;10.23;3.10;;;8.70;99.90;;;;;;5033443;28;20029;-72
2021/10/23 10:18:17;;;;;;;14.43;3.58;;;8.50;99.90;;;;;;5034637;28;20040;-72
2021/10/23 10:20:45;;;;;;;11.20;3.10;;;8.30;99.90;;;;;;5023661;28;20030;-72
2021/10/23 10:23:16;;;;;;;6.55;2.47;;;8.20;99.90;;;;;;5026875;28;20026;-72
2021/10/23 10:25:42;;;;;;;10.07;3.22;;;8.10;99.90;;;;;;5014788;28;20504;-72
2021/10/23 10:28:10;;;;;;;9.13;2.85;;;8.00;99.90;;;;;;5032987;28;20388;-73
2021/10/23 10:30:37;;;;;;;14.70;2.95;;;8.00;99.90;;;;;;5033099;28;20025;-74
2021/10/23 10:33:39;;;;;;;7.85;2.90;;;8.00;99.90;;;;;;5028882;28;20499;-75
2021/10/23 10:44:12;;;;;;;6.13;2.33;;;8.30;99.90;;;;;;5033528;28;20021;-75
2021/10/23 10:47:10;;;;;;;8.15;2.42;;;8.40;99.90;;;;;;5014520;28;20076;-73
2021/10/23 10:49:50;;;;;;;11.68;2.45;;;8.50;99.90;;;;;;5031905;28;20116;-73
2021/10/23 10:52:41;;;;;;;8.95;2.33;;;8.60;99.90;;;;;;5017773;28;20108;-74
2021/10/23 10:55:15;;;;;;;11.35;2.60;;;8.70;99.90;;;;;;5025785;28;20041;-73
2021/10/23 10:58:02;;;;;;;8.00;2.92;;;8.90;99.90;;;;;;5021886;28;20091;-73
2021/10/23 11:00:46;;;;;;;6.35;2.00;;;9.00;99.90;;;;;;5020351;28;20026;-75
2021/10/23 11:03:43;;;;;;;9.02;2.30;;;9.10;99.90;;;;;;5019590;28;20563;-73
2021/10/23 11:06:27;;;;;;;5.32;1.80;;;9.10;99.90;;;;;;5024915;28;20030;-75
2021/10/23 11:09:11;;;;;;;10.75;2.85;;;9.10;99.90;;;;;;5020603;28;20079;-74
2021/10/23 11:11:51;;;;;;;6.22;2.20;;;9.20;99.90;;;;;;5029823;28;20037;-74
2021/10/23 11:14:28;;;;;;;5.38;2.17;;;9.10;99.90;;;;;;5025128;28;20414;-73
2021/10/23 11:16:57;;;;;;;7.07;2.28;;;9.20;99.90;;;;;;5020161;28;20026;-73
2021/10/23 11:19:43;;;;;;;9.43;2.53;;;9.20;99.90;;;;;;5019243;28;20564;-74
2021/10/23 11:22:19;;;;;;;6.63;2.00;;;9.30;99.90;;;;;;5022227;28;20021;-73
2021/10/23 11:25:05;;;;;;;5.80;2.25;;;9.40;99.90;;;;;;5029526;28;20030;-75
2021/10/23 11:27:44;;;;;;;6.47;1.95;;;9.40;99.90;;;;;;5026787;28;20021;-73
2021/10/23 11:30:20;;;;;;;8.82;2.13;;;9.60;99.90;;;;;;5024861;28;20030;-75
2021/10/23 11:32:52;;;;;;;8.95;2.35;;;9.80;99.90;;;;;;5029591;28;20032;-73
2021/10/23 11:35:26;;;;;;;8.82;2.92;;;9.80;99.90;;;;;;5021411;28;20060;-73
2021/10/23 11:37:53;;;;;;;9.57;2.65;;;9.70;99.90;;;;;;5025711;28;20022;-74
2021/10/23 11:40:19;;;;;;;4.43;2.00;;;9.70;99.90;;;;;;5031075;28;20087;-73
2021/10/23 11:42:50;;;;;;;10.48;2.53;;;10.20;99.90;;;;;;5032706;28;20403;-73
2021/10/23 11:45:18;;;;;;;5.90;1.80;;;10.30;99.90;;;;;;5020775;28;20030;-73
2021/10/23 11:47:43;;;;;;;4.70;2.13;;;10.00;99.90;;;;;;5026596;28;20117;-73
2021/10/23 11:50:29;;;;;;;6.35;2.75;;;10.70;99.90;;;;;;5024550;28;20049;-74
2021/10/23 11:53:02;;;;;;;7.50;2.30;;;10.90;99.90;;;;;;5036511;28;20158;-74
2021/10/23 11:55:35;;;;;;;7.70;2.20;;;10.50;99.90;;;;;;5030181;28;20033;-74
2021/10/23 11:58:07;;;;;;;7.68;2.20;;;10.60;99.90;;;;;;5023148;28;20029;-74
2021/10/23 12:00:35;;;;;;;4.68;2.15;;;10.30;99.90;;;;;;5019239;28;20171;-74
2021/10/23 12:03:03;;;;;;;10.00;2.42;;;10.00;99.90;;;;;;5032680;28;20022;-73
2021/10/23 12:05:48;;;;;;;7.50;2.80;;;9.90;99.90;;;;;;5019399;28;20021;-73
2021/10/23 12:08:17;;;;;;;7.63;2.63;;;9.70;99.90;;;;;;5019206;28;20053;-73
2021/10/23 12:11:09;;;;;;;7.70;2.50;;;9.60;99.90;;;;;;5024849;28;20026;-72
2021/10/23 12:14:02;;;;;;;6.30;2.50;;;9.60;99.90;;;;;;5027179;28;20109;-73
2021/10/23 12:16:31;;;;;;;5.43;2.05;;;9.80;99.90;;;;;;5030793;28;20053;-73
2021/10/23 12:19:03;;;;;;;8.48;2.55;;;9.90;99.90;;;;;;5019710;28;20064;-74
2021/10/23 12:22:09;;;;;;;4.15;1.88;;;10.20;99.90;;;;;;5018833;28;20037;-73
2021/10/23 12:24:37;;;;;;;7.90;2.23;;;10.30;99.90;;;;;;5029793;28;20041;-73
2021/10/23 12:27:12;;;;;;;5.55;2.42;;;10.40;99.90;;;;;;5020697;28;20041;-73
2021/10/23 12:29:46;;;;;;;6.63;2.67;;;10.40;99.90;;;;;;5018752;28;20049;-73
2021/10/23 12:32:17;;;;;;;6.63;2.15;;;10.20;99.90;;;;;;5021911;28;20727;-74
2021/10/23 12:34:49;;;;;;;5.63;1.98;;;9.80;99.90;;;;;;5025088;28;20033;-74
2021/10/23 12:37:27;;;;;;;6.72;2.40;;;9.60;99.90;;;;;;5024344;28;20395;-73
2021/10/23 12:40:14;;;;;;;5.22;2.60;;;9.60;99.90;;;;;;5046042;28;20036;-73
2021/10/23 12:42:47;;;;;;;6.53;2.45;;;9.70;99.90;;;;;;5036274;28;20028;-73
2021/10/23 12:45:24;;;;;;;7.13;2.92;;;9.70;99.90;;;;;;5018741;28;20033;-73
2021/10/23 12:47:51;;;;;;;6.28;2.13;;;9.70;99.90;;;;;;5030807;28;20026;-73
2021/10/23 12:50:19;;;;;;;9.00;2.50;;;9.80;99.90;;;;;;5018451;28;20033;-73
2021/10/23 12:52:45;;;;;;;7.45;2.67;;;10.00;99.90;;;;;;5024522;28;20057;-73
2021/10/23 12:55:11;;;;;;;9.57;3.08;;;10.20;99.90;;;;;;5024838;28;20134;-73
2021/10/23 12:57:37;;;;;;;11.68;2.22;;;10.50;99.90;;;;;;5023413;28;20488;-73
2021/10/23 13:00:03;;;;;;;7.43;2.40;;;10.30;99.90;;;;;;5013121;28;20088;-73
2021/10/23 13:02:29;;;;;;;8.02;2.40;;;10.50;99.90;;;;;;5024218;28;20030;-74
2021/10/23 13:04:54;;;;;;;6.68;2.22;;;10.40;99.90;;;;;;5025216;28;20484;-73
2021/10/23 13:07:21;;;;;;;6.88;2.60;;;10.40;99.90;;;;;;5019468;28;20022;-74